createdAt,value
2018-11-28T00:01:33.223Z,22.90
2018-11-28T00:03:59.262Z,24.00
2018-11-28T00:06:25.251Z,23.37
2018-11-28T00:08:51.271Z,23.00
2018-11-28T00:11:18.020Z,23.23
2018-11-28T00:13:44.754Z,23.97
2018-11-28T00:16:11.519Z,20.53
2018-11-28T00:18:37.526Z,22.27
2018-11-28T00:21:03.548Z,21.40
2018-11-28T00:23:30.289Z,21.40
2018-11-28T00:25:58.946Z,21.30
2018-11-28T00:28:23.067Z,22.63
2018-11-28T00:30:49.075Z,22.70
2018-11-28T00:33:15.823Z,20.98
2018-11-28T00:35:42.607Z,21.90
2018-11-28T00:38:08.632Z,24.30
2018-11-28T00:40:34.637Z,22.10
2018-11-28T00:43:00.620Z,22.37
2018-11-28T00:45:27.411Z,23.63
2018-11-28T00:47:53.416Z,23.23
2018-11-28T00:50:19.414Z,22.97
2018-11-28T00:52:52.549Z,25.00
2018-11-28T00:55:18.546Z,24.73
2018-11-28T00:57:44.550Z,25.77
2018-11-28T01:00:11.347Z,23.77
2018-11-28T01:02:37.373Z,26.17
2018-11-28T01:05:03.378Z,24.27
2018-11-28T01:07:29.382Z,23.00
2018-11-28T01:09:56.121Z,23.83
2018-11-28T01:12:22.160Z,26.00
2018-11-28T01:14:48.189Z,23.90
2018-11-28T01:17:14.195Z,24.60
2018-11-28T01:19:40.223Z,26.07
2018-11-28T01:22:06.980Z,23.90
2018-11-28T01:24:32.982Z,24.70
2018-11-28T01:26:59.736Z,23.53
2018-11-28T01:29:25.754Z,23.10
2018-11-28T01:31:51.765Z,21.80
2018-11-28T01:34:18.502Z,24.60
2018-11-28T01:36:44.527Z,22.93
2018-11-28T01:39:11.247Z,23.03
2018-11-28T01:41:37.247Z,23.77
2018-11-28T01:44:03.281Z,25.90
2018-11-28T01:46:29.291Z,24.73
2018-11-28T01:48:55.322Z,23.80
2018-11-28T01:51:21.315Z,25.48
2018-11-28T01:53:47.323Z,25.60
2018-11-28T01:56:13.353Z,22.75
2018-11-28T01:58:46.473Z,26.53
2018-11-28T02:01:12.543Z,23.98
2018-11-28T02:03:38.586Z,24.00
2018-11-28T02:06:04.610Z,25.75
2018-11-28T02:08:30.654Z,23.80
2018-11-28T02:10:56.732Z,23.83
2018-11-28T02:13:23.503Z,22.30
2018-11-28T02:15:49.508Z,22.58
2018-11-28T02:18:15.565Z,24.50
2018-11-28T02:20:41.576Z,24.33
2018-11-28T02:23:07.591Z,24.33
2018-11-28T02:25:33.611Z,22.90
2018-11-28T02:28:00.364Z,24.17
2018-11-28T02:30:26.397Z,21.17
2018-11-28T02:32:52.409Z,25.00
2018-11-28T02:35:18.478Z,24.02
2018-11-28T02:37:44.498Z,20.88
2018-11-28T02:40:10.500Z,20.73
2018-11-28T02:42:36.503Z,21.70
2018-11-28T02:45:03.258Z,21.40
2018-11-28T02:47:29.327Z,22.15
2018-11-28T02:49:55.322Z,21.52
2018-11-28T02:52:21.349Z,23.30
2018-11-28T02:54:47.349Z,21.65
2018-11-28T02:57:13.366Z,24.47
2018-11-28T02:59:39.377Z,26.08
2018-11-28T03:02:06.137Z,21.75
2018-11-28T03:04:32.229Z,26.62
2018-11-28T03:06:58.246Z,24.27
2018-11-28T03:09:24.255Z,23.05
2018-11-28T03:11:50.261Z,23.87
2018-11-28T03:14:16.307Z,24.35
2018-11-28T03:16:42.309Z,25.58
2018-11-28T03:19:08.303Z,23.00
2018-11-28T03:21:34.331Z,23.25
2018-11-28T03:24:00.365Z,22.95
2018-11-28T03:26:26.377Z,24.08
2018-11-28T03:28:52.401Z,23.65
2018-11-28T03:31:18.388Z,24.95
2018-11-28T03:33:44.396Z,21.43
2018-11-28T03:36:10.427Z,23.92
2018-11-28T03:38:36.431Z,23.23
2018-11-28T03:41:02.437Z,25.98
2018-11-28T03:43:28.427Z,25.30
2018-11-28T03:45:54.460Z,24.20
2018-11-28T03:48:20.473Z,22.75
2018-11-28T03:50:46.482Z,23.80
2018-11-28T03:53:13.234Z,25.85
2018-11-28T03:55:39.990Z,23.00
2018-11-28T03:58:06.003Z,24.85
2018-11-28T04:00:32.027Z,24.08
2018-11-28T04:02:58.775Z,24.90
2018-11-28T04:05:24.768Z,24.52
2018-11-28T04:07:50.808Z,23.85
2018-11-28T04:10:17.530Z,21.50
2018-11-28T04:12:43.554Z,23.15
2018-11-28T04:15:09.536Z,19.58
2018-11-28T04:17:35.538Z,22.33
2018-11-28T04:20:01.600Z,21.98
2018-11-28T04:22:27.579Z,22.65
2018-11-28T04:24:53.582Z,21.00
2018-11-28T04:27:19.597Z,20.70
2018-11-28T04:29:45.598Z,21.00
2018-11-28T04:32:11.630Z,21.77
2018-11-28T04:34:37.646Z,23.40
2018-11-28T04:37:03.694Z,22.90
2018-11-28T04:39:29.726Z,21.10
2018-11-28T04:41:55.705Z,24.50
2018-11-28T04:44:21.706Z,22.67
2018-11-28T04:46:47.718Z,20.23
2018-11-28T04:49:13.714Z,20.05
2018-11-28T04:51:39.719Z,20.47
2018-11-28T04:54:05.707Z,21.10
2018-11-28T04:56:31.711Z,21.37
2018-11-28T04:58:57.711Z,21.10
2018-11-28T05:01:23.708Z,23.80
2018-11-28T05:03:49.682Z,21.40
2018-11-28T05:06:16.424Z,21.40
2018-11-28T05:08:42.434Z,22.40
2018-11-28T05:11:09.206Z,21.70
2018-11-28T05:13:35.288Z,20.55
2018-11-28T05:16:01.283Z,21.95
2018-11-28T05:18:27.381Z,21.47
2018-11-28T05:20:53.341Z,22.08
2018-11-28T05:23:19.341Z,22.47
2018-11-28T05:25:45.334Z,22.60
2018-11-28T05:28:11.357Z,20.25
2018-11-28T05:30:37.343Z,23.83
2018-11-28T05:33:03.338Z,20.60
2018-11-28T05:35:29.325Z,18.87
2018-11-28T05:37:55.349Z,19.80
2018-11-28T05:40:21.342Z,21.87
2018-11-28T05:42:47.345Z,22.63
2018-11-28T05:45:13.407Z,20.58
2018-11-28T05:47:39.399Z,20.95
2018-11-28T05:50:05.374Z,19.60
2018-11-28T05:52:31.378Z,22.30
2018-11-28T05:55:07.357Z,20.88
2018-11-28T05:57:33.355Z,20.63
2018-11-28T06:00:00.086Z,23.05
2018-11-28T06:02:26.853Z,22.70
2018-11-28T06:04:52.842Z,19.90
2018-11-28T06:07:18.845Z,23.37
2018-11-28T06:09:44.851Z,24.75
2018-11-28T06:12:10.842Z,22.67
2018-11-28T06:14:37.630Z,23.43
2018-11-28T06:17:03.618Z,24.00
2018-11-28T06:19:29.656Z,24.73
2018-11-28T06:21:55.684Z,21.85
2018-11-28T06:24:21.783Z,23.00
2018-11-28T06:26:47.835Z,22.98
2018-11-28T06:29:13.862Z,24.60
2018-11-28T06:31:39.864Z,22.98
2018-11-28T06:34:05.887Z,20.08
2018-11-28T06:36:31.891Z,23.83
2018-11-28T06:38:58.628Z,21.63
2018-11-28T06:41:25.355Z,23.27
2018-11-28T06:43:51.344Z,21.75
2018-11-28T06:46:17.370Z,25.90
2018-11-28T06:48:43.375Z,25.73
2018-11-28T06:51:09.382Z,25.40
2018-11-28T06:53:35.365Z,28.15
2018-11-28T06:56:01.377Z,23.77
2018-11-28T06:58:27.405Z,26.20
2018-11-28T07:00:53.392Z,22.67
2018-11-28T07:03:19.417Z,22.97
2018-11-28T07:05:45.442Z,23.05
2018-11-28T07:08:11.452Z,26.77
2018-11-28T07:10:37.457Z,26.33
2018-11-28T07:13:03.466Z,23.10
2018-11-28T07:15:30.219Z,23.60
2018-11-28T07:17:56.242Z,23.38
2018-11-28T07:20:22.961Z,25.37
2018-11-28T07:22:48.955Z,25.55
2018-11-28T07:25:14.950Z,24.07
2018-11-28T07:27:45.125Z,22.40
2018-11-28T07:30:06.985Z,29.17
2018-11-28T07:32:32.990Z,21.75
2018-11-28T07:34:58.974Z,25.00
2018-11-28T07:37:24.974Z,23.20
2018-11-28T07:39:50.983Z,23.60
2018-11-28T07:42:17.003Z,24.55
2018-11-28T07:44:43.004Z,23.35
2018-11-28T07:47:08.983Z,27.17
2018-11-28T07:49:34.970Z,24.40
2018-11-28T07:52:00.983Z,23.50
2018-11-28T07:54:27.742Z,22.60
2018-11-28T07:56:53.797Z,23.50
2018-11-28T07:59:19.729Z,21.43
2018-11-28T08:01:45.714Z,23.67
2018-11-28T08:04:11.718Z,23.53
2018-11-28T08:06:37.687Z,23.00
2018-11-28T08:09:03.715Z,22.87
2018-11-28T08:11:29.717Z,24.55
2018-11-28T08:13:55.713Z,26.33
2018-11-28T08:16:21.738Z,27.80
2018-11-28T08:18:47.735Z,23.63
2018-11-28T08:21:13.757Z,24.00
2018-11-28T08:23:39.764Z,26.63
2018-11-28T08:26:05.746Z,25.90
2018-11-28T08:28:31.749Z,26.67
2018-11-28T08:30:57.765Z,26.92
2018-11-28T08:33:24.537Z,24.75
2018-11-28T08:35:50.536Z,23.80
2018-11-28T08:38:16.516Z,25.17
2018-11-28T08:40:42.522Z,23.47
2018-11-28T08:43:08.518Z,24.58
2018-11-28T08:45:34.535Z,25.87
2018-11-28T08:48:00.523Z,26.45
2018-11-28T08:50:26.529Z,26.23
2018-11-28T08:52:52.530Z,26.62
2018-11-28T08:55:18.523Z,24.50
2018-11-28T08:57:44.516Z,27.20
2018-11-28T09:00:10.513Z,24.53
2018-11-28T09:02:36.502Z,26.75
2018-11-28T09:05:02.494Z,27.73
2018-11-28T09:07:28.508Z,26.53
2018-11-28T09:09:54.512Z,26.95
2018-11-28T09:12:20.499Z,28.23
2018-11-28T09:14:46.530Z,27.93
2018-11-28T09:17:15.134Z,25.97
2018-11-28T09:19:38.563Z,27.70
2018-11-28T09:22:04.560Z,25.90
2018-11-28T09:24:30.552Z,24.13
2018-11-28T09:26:56.559Z,30.53
2018-11-28T09:29:22.542Z,26.20
2018-11-28T09:31:48.544Z,25.67
2018-11-28T09:34:14.534Z,26.70
2018-11-28T09:36:40.575Z,26.87
2018-11-28T09:39:06.562Z,27.80
2018-11-28T09:41:32.570Z,26.27
2018-11-28T09:43:59.335Z,23.77
2018-11-28T09:46:25.325Z,26.13
2018-11-28T09:48:51.348Z,25.27
2018-11-28T09:51:17.350Z,31.30
2018-11-28T09:53:43.338Z,25.10
2018-11-28T09:56:09.369Z,24.53
2018-11-28T09:58:36.068Z,24.13
2018-11-28T10:01:02.803Z,26.97
2018-11-28T10:03:29.547Z,27.07
2018-11-28T10:05:55.559Z,26.40
2018-11-28T10:08:21.640Z,25.67
2018-11-28T10:10:47.778Z,25.03
2018-11-28T10:13:13.818Z,26.80
2018-11-28T10:15:39.799Z,27.37
2018-11-28T10:18:05.779Z,25.33
2018-11-28T10:20:31.771Z,27.80
2018-11-28T10:22:57.767Z,25.93
2018-11-28T10:25:23.791Z,28.80
2018-11-28T10:27:49.775Z,26.40
2018-11-28T10:30:15.771Z,28.80
2018-11-28T10:32:41.773Z,26.37
2018-11-28T10:35:07.799Z,25.50
2018-11-28T10:37:33.818Z,25.50
2018-11-28T10:39:59.842Z,26.50
2018-11-28T10:42:25.924Z,25.63
2018-11-28T10:44:52.001Z,23.63
2018-11-28T10:47:18.040Z,22.93
2018-11-28T10:49:44.048Z,25.67
2018-11-28T10:52:10.064Z,26.30
2018-11-28T10:54:36.082Z,25.03
2018-11-28T10:57:02.108Z,24.13
2018-11-28T10:59:35.123Z,25.30
2018-11-28T11:02:01.147Z,24.97
2018-11-28T11:04:27.173Z,24.27
2018-11-28T11:07:08.141Z,24.37
2018-11-28T11:09:49.902Z,21.33
2018-11-28T11:12:15.926Z,23.27
2018-11-28T11:14:41.939Z,23.23
2018-11-28T11:17:07.939Z,24.70
2018-11-28T11:19:33.947Z,23.53
2018-11-28T11:21:59.967Z,26.17
2018-11-28T11:24:26.718Z,24.87
2018-11-28T11:26:52.758Z,24.17
2018-11-28T11:29:18.756Z,26.30
2018-11-28T11:31:44.789Z,25.77
2018-11-28T11:34:10.800Z,25.07
2018-11-28T11:36:36.839Z,24.33
2018-11-28T11:39:02.833Z,22.90
2018-11-28T11:41:28.809Z,22.90
2018-11-28T11:43:55.567Z,24.60
2018-11-28T11:46:21.619Z,22.33
2018-11-28T11:48:47.651Z,26.67
2018-11-28T11:51:13.727Z,22.40
2018-11-28T11:53:39.758Z,22.77
2018-11-28T11:56:05.782Z,20.73
2018-11-28T11:58:31.826Z,24.67
2018-11-28T12:00:57.861Z,23.07
2018-11-28T12:03:23.875Z,22.83
2018-11-28T12:05:49.909Z,23.83
2018-11-28T12:08:15.995Z,21.70
2018-11-28T12:10:42.026Z,23.73
2018-11-28T12:13:08.230Z,23.50
2018-11-28T12:15:34.091Z,20.87
2018-11-28T12:18:00.119Z,23.10
2018-11-28T12:20:33.098Z,21.90
2018-11-28T12:22:59.150Z,22.00
2018-11-28T12:25:25.150Z,21.90
2018-11-28T12:27:51.174Z,23.77
2018-11-28T12:30:17.275Z,21.73
2018-11-28T12:32:43.458Z,20.80
2018-11-28T12:35:09.475Z,20.20
2018-11-28T12:37:35.544Z,21.33
2018-11-28T12:40:01.588Z,22.27
2018-11-28T12:42:27.728Z,21.83
2018-11-28T12:44:53.753Z,21.30
2018-11-28T12:47:19.823Z,20.83
2018-11-28T12:49:45.873Z,19.93
2018-11-28T12:52:11.877Z,21.27
2018-11-28T12:54:37.914Z,23.20
2018-11-28T12:57:04.651Z,22.70
2018-11-28T12:59:30.753Z,19.60
2018-11-28T13:01:56.792Z,21.60
2018-11-28T13:04:22.836Z,20.93
2018-11-28T13:06:48.886Z,20.10
2018-11-28T13:09:14.961Z,20.47
2018-11-28T13:11:41.000Z,21.07
2018-11-28T13:14:08.176Z,19.47
2018-11-28T13:16:34.525Z,19.93
2018-11-28T13:19:00.624Z,22.23
2018-11-28T13:21:26.674Z,20.63
2018-11-28T13:23:53.029Z,20.70
2018-11-28T13:26:19.126Z,20.70
2018-11-28T13:28:45.217Z,20.77
2018-11-28T13:31:12.041Z,19.10
2018-11-28T13:33:39.127Z,19.73
2018-11-28T13:36:05.357Z,20.30
2018-11-28T13:38:31.388Z,20.90
2018-11-28T13:40:57.477Z,21.60
2018-11-28T13:43:23.495Z,19.20
2018-11-28T13:45:49.510Z,20.37
2018-11-28T13:48:15.503Z,19.40
2018-11-28T13:50:41.525Z,20.83
2018-11-28T13:53:07.588Z,21.17
2018-11-28T13:55:38.445Z,18.83
2018-11-28T13:57:59.925Z,21.77
2018-11-28T14:00:25.944Z,18.67
2018-11-28T14:02:51.935Z,20.10
2018-11-28T14:05:18.191Z,22.03
2018-11-28T14:07:44.366Z,19.77
2018-11-28T14:10:10.689Z,17.03
2018-11-28T14:12:36.740Z,20.40
2018-11-28T14:15:02.855Z,19.63
2018-11-28T14:17:28.889Z,18.60
2018-11-28T14:19:54.989Z,19.50
2018-11-28T14:22:22.244Z,19.77
2018-11-28T14:24:49.506Z,20.57
2018-11-28T14:27:15.875Z,17.73
2018-11-28T14:29:41.891Z,22.17
2018-11-28T14:32:08.716Z,21.90
2018-11-28T14:34:34.783Z,19.57
2018-11-28T14:37:00.841Z,21.20
2018-11-28T14:39:27.590Z,23.10
2018-11-28T14:41:53.637Z,22.17
2018-11-28T14:44:19.628Z,21.00
2018-11-28T14:46:45.665Z,21.07
2018-11-28T14:49:11.723Z,19.10
2018-11-28T14:51:37.751Z,18.40
2018-11-28T14:54:03.801Z,19.23
2018-11-28T14:56:29.806Z,20.57
2018-11-28T14:58:55.811Z,20.10
2018-11-28T15:01:21.846Z,17.83
2018-11-28T15:03:47.845Z,18.30
2018-11-28T15:06:13.901Z,20.33
2018-11-28T15:08:39.957Z,17.43
2018-11-28T15:11:06.726Z,19.30
2018-11-28T15:13:32.745Z,18.63
2018-11-28T15:15:58.810Z,19.00
2018-11-28T15:18:24.836Z,18.97
2018-11-28T15:20:50.842Z,18.30
2018-11-28T15:23:16.839Z,19.60
2018-11-28T15:25:42.914Z,21.87
2018-11-28T15:28:18.942Z,18.40
2018-11-28T15:30:44.955Z,20.20
2018-11-28T15:33:10.975Z,20.10
2018-11-28T15:35:37.007Z,19.30
2018-11-28T15:38:03.039Z,21.00
2018-11-28T15:40:29.051Z,21.33
2018-11-28T15:42:55.081Z,19.43
2018-11-28T15:45:21.799Z,20.47
2018-11-28T15:47:47.815Z,18.23
2018-11-28T15:50:13.808Z,18.00
2018-11-28T15:52:39.851Z,19.00
2018-11-28T15:55:05.936Z,18.37
2018-11-28T15:57:31.992Z,18.00
2018-11-28T15:59:58.017Z,16.93
2018-11-28T16:02:24.137Z,19.43
2018-11-28T16:04:50.146Z,16.87
2018-11-28T16:07:16.217Z,18.30
2018-11-28T16:09:42.238Z,18.80
2018-11-28T16:12:08.311Z,20.37
2018-11-28T16:14:34.367Z,18.93
2018-11-28T16:17:00.382Z,20.20
2018-11-28T16:19:26.369Z,19.37
2018-11-28T16:21:52.390Z,20.07
2018-11-28T16:24:18.367Z,23.40
2018-11-28T16:26:44.387Z,20.17
2018-11-28T16:29:10.400Z,20.40
2018-11-28T16:31:36.361Z,19.63
2018-11-28T16:34:02.346Z,20.53
2018-11-28T16:36:28.339Z,19.03
2018-11-28T16:38:54.373Z,20.00
2018-11-28T16:41:20.401Z,20.20
2018-11-28T16:43:46.424Z,20.03
2018-11-28T16:46:12.439Z,20.53
2018-11-28T16:48:38.442Z,20.40
2018-11-28T16:51:04.529Z,23.00
2018-11-28T16:53:30.621Z,20.80
2018-11-28T16:55:56.635Z,19.70
2018-11-28T16:58:22.656Z,19.70
2018-11-28T17:00:48.666Z,19.60
2018-11-28T17:03:14.666Z,19.70
2018-11-28T17:05:40.672Z,19.47
2018-11-28T17:08:06.646Z,21.20
2018-11-28T17:10:32.655Z,18.53
2018-11-28T17:12:58.685Z,19.70
2018-11-28T17:15:24.702Z,20.73
2018-11-28T17:17:51.450Z,31.00
2018-11-28T17:20:17.479Z,23.00
2018-11-28T17:22:43.452Z,21.47
2018-11-28T17:25:09.441Z,21.90
2018-11-28T17:27:35.450Z,20.70
2018-11-28T17:30:01.465Z,20.40
2018-11-28T17:32:27.532Z,22.20
2018-11-28T17:34:53.548Z,21.07
2018-11-28T17:37:19.542Z,20.70
2018-11-28T17:39:45.590Z,21.43
2018-11-28T17:42:11.607Z,22.10
2018-11-28T17:44:37.597Z,20.13
2018-11-28T17:47:03.631Z,21.50
2018-11-28T17:49:29.619Z,22.27
2018-11-28T17:51:55.603Z,23.00
2018-11-28T17:54:21.586Z,20.90
2018-11-28T17:56:47.585Z,20.93
2018-11-28T17:59:13.573Z,19.43
2018-11-28T18:01:39.585Z,19.57
2018-11-28T18:04:05.590Z,21.17
2018-11-28T18:06:31.596Z,21.63
2018-11-28T18:08:57.594Z,20.67
2018-11-28T18:11:23.671Z,18.77
2018-11-28T18:13:49.689Z,18.60
2018-11-28T18:16:15.737Z,19.53
2018-11-28T18:18:41.756Z,18.80
2018-11-28T18:21:07.794Z,17.87
2018-11-28T18:23:33.771Z,19.10
2018-11-28T18:25:59.886Z,19.63
2018-11-28T18:28:25.878Z,19.83
2018-11-28T18:30:51.882Z,20.00
2018-11-28T18:33:17.895Z,20.90
2018-11-28T18:35:43.898Z,20.23
2018-11-28T18:38:10.661Z,20.40
2018-11-28T18:40:36.655Z,19.23
2018-11-28T18:43:02.652Z,19.20
2018-11-28T18:45:28.618Z,19.67
2018-11-28T18:47:54.626Z,20.63
2018-11-28T18:50:20.650Z,18.40
2018-11-28T18:52:46.679Z,20.97
2018-11-28T18:55:16.587Z,17.27
2018-11-28T18:57:38.715Z,21.77
2018-11-28T19:00:05.610Z,20.73
2018-11-28T19:02:31.600Z,19.03
2018-11-28T19:04:57.642Z,17.73
2018-11-28T19:07:23.746Z,18.10
2018-11-28T19:09:49.764Z,18.23
2018-11-28T19:12:16.510Z,17.03
2018-11-28T19:14:43.331Z,20.00
2018-11-28T19:17:09.283Z,19.10
2018-11-28T19:19:35.303Z,16.07
2018-11-28T19:22:01.415Z,17.90
2018-11-28T19:24:28.218Z,18.20
2018-11-28T19:26:54.334Z,19.07
2018-11-28T19:29:20.357Z,21.50
2018-11-28T19:31:46.351Z,21.07
2018-11-28T19:34:18.034Z,19.03
2018-11-28T19:36:38.540Z,18.40
2018-11-28T19:39:04.706Z,20.83
2018-11-28T19:41:30.767Z,20.27
2018-11-28T19:43:56.911Z,22.33
2018-11-28T19:46:22.959Z,20.97
2018-11-28T19:48:49.189Z,22.43
2018-11-28T19:51:15.390Z,21.00
2018-11-28T19:53:41.416Z,18.57
2018-11-28T19:56:07.446Z,19.20
2018-11-28T19:58:33.576Z,20.07
2018-11-28T20:00:59.754Z,18.90
2018-11-28T20:03:25.761Z,22.50
2018-11-28T20:05:51.755Z,23.10
2018-11-28T20:08:17.806Z,20.43
2018-11-28T20:10:43.815Z,21.07
2018-11-28T20:13:09.827Z,21.00
2018-11-28T20:15:35.846Z,23.13
2018-11-28T20:18:01.874Z,19.27
2018-11-28T20:20:28.137Z,22.07
2018-11-28T20:22:54.328Z,20.70
2018-11-28T20:25:20.463Z,21.30
2018-11-28T20:27:46.649Z,23.27
2018-11-28T20:30:12.747Z,20.87
2018-11-28T20:32:38.930Z,21.70
2018-11-28T20:35:05.029Z,22.90
2018-11-28T20:37:31.012Z,21.50
2018-11-28T20:39:57.021Z,21.50
2018-11-28T20:42:23.040Z,22.93
2018-11-28T20:44:49.154Z,21.40
2018-11-28T20:47:15.171Z,19.80
2018-11-28T20:49:41.267Z,24.40
2018-11-28T20:52:07.258Z,23.37
2018-11-28T20:54:33.285Z,23.70
2018-11-28T20:56:59.511Z,22.90
2018-11-28T20:59:25.627Z,23.17
2018-11-28T21:01:51.775Z,24.37
2018-11-28T21:04:17.892Z,22.33
2018-11-28T21:06:44.069Z,22.27
2018-11-28T21:09:10.159Z,24.07
2018-11-28T21:11:37.001Z,24.50
2018-11-28T21:14:03.122Z,26.17
2018-11-28T21:16:29.130Z,25.47
2018-11-28T21:18:55.154Z,26.83
2018-11-28T21:21:27.299Z,22.87
2018-11-28T21:23:48.090Z,25.20
2018-11-28T21:26:14.077Z,26.53
2018-11-28T21:28:40.833Z,25.20
2018-11-28T21:31:06.887Z,26.87
2018-11-28T21:33:32.913Z,24.85
2018-11-28T21:35:58.957Z,26.20
2018-11-28T21:38:25.762Z,24.50
2018-11-28T21:40:52.319Z,24.93
2018-11-28T21:43:18.373Z,26.70
2018-11-28T21:45:45.126Z,27.03
2018-11-28T21:48:11.205Z,25.83
2018-11-28T21:50:37.237Z,25.10
2018-11-28T21:53:04.010Z,23.13
2018-11-28T21:55:30.800Z,23.60
2018-11-28T21:57:56.842Z,28.33
2018-11-28T22:00:22.873Z,24.37
2018-11-28T22:02:48.874Z,23.03
2018-11-28T22:05:14.938Z,28.33
2018-11-28T22:07:40.953Z,27.47
2018-11-28T22:10:07.692Z,26.80
2018-11-28T22:12:33.701Z,29.97
2018-11-28T22:14:59.704Z,30.93
2018-11-28T22:17:25.735Z,26.93
2018-11-28T22:19:51.745Z,31.57
2018-11-28T22:22:17.832Z,26.95
2018-11-28T22:24:43.944Z,26.07
2018-11-28T22:27:10.712Z,28.80
2018-11-28T22:29:36.701Z,29.27
2018-11-28T22:32:02.710Z,26.03
2018-11-28T22:34:29.476Z,28.35
2018-11-28T22:36:55.579Z,26.47
2018-11-28T22:39:22.358Z,26.37
2018-11-28T22:41:48.375Z,24.23
2018-11-28T22:44:14.428Z,23.98
2018-11-28T22:46:40.439Z,26.50
2018-11-28T22:49:06.489Z,25.03
2018-11-28T22:51:32.526Z,22.30
2018-11-28T22:53:58.548Z,26.45
2018-11-28T22:56:24.563Z,25.30
2018-11-28T22:58:50.582Z,27.60
2018-11-28T23:01:16.606Z,28.00
2018-11-28T23:03:42.633Z,28.70
2018-11-28T23:06:08.639Z,23.80
2018-11-28T23:08:34.687Z,25.77
2018-11-28T23:11:00.751Z,27.52
2018-11-28T23:13:27.530Z,25.35
2018-11-28T23:15:53.573Z,24.70
2018-11-28T23:18:19.614Z,26.40
2018-11-28T23:20:45.646Z,27.00
2018-11-28T23:23:11.677Z,24.05
2018-11-28T23:25:37.698Z,26.23
2018-11-28T23:28:03.710Z,25.90
2018-11-28T23:30:29.768Z,24.20
2018-11-28T23:32:56.527Z,26.47
2018-11-28T23:35:22.587Z,25.80
2018-11-28T23:37:48.594Z,26.90
2018-11-28T23:40:14.592Z,26.20
2018-11-28T23:42:41.368Z,26.73
2018-11-28T23:45:07.384Z,30.80
2018-11-28T23:47:33.372Z,27.17
2018-11-28T23:50:00.115Z,28.43
2018-11-28T23:52:26.145Z,27.87
2018-11-28T23:54:52.277Z,27.55
2018-11-28T23:57:18.300Z,29.12
2018-11-28T23:59:44.317Z,28.12
